Tiempo atmosférico en la estación meteorológica de Arico, Santa Cruz de Tenerife (418 m.)



Fecha
DESCASC
Temp. máxima en grados centígrados (hora)
DESCASC
Temp. mínima en grados centígrados (hora)
DESCASC
Temp. media en grados centígrados
DESCASC
Racha de viento máxima en m/sg (hora)
DESCASC
Velocidad máxima media en intervalos de 10 minutos(hora)
DESCASC
Precipitaciones diarias en mm
DESCASC
Precipitaciones de 00:00 a 06:00 en mm
DESCASC
Precipitaciones de 06:00 a 12:00 en mm
DESCASC
Precipitaciones de 12:00 a 18:00 en mm
DESCASC
Precipitaciones de 18:00 a 24:00 en mm
DESCASC
29-10-2020 23.4 (13:50) 15.8 (07:30) 19.6 10 (13:40) 6.11 (13:30) 0 0 0 0 0
28-10-2020 21.7 (12:30) 16 (07:00) 18.9 11.67 (12:20) 7.5 (11:50) 0 0 0 0 0
27-10-2020 21.2 (13:50) 15.8 (00:00) 18.5 11.11 (17:40) 6.94 (17:40) 0 0 0 0 0
26-10-2020 21.9 (14:10) 15.8 (00:00) 18.8 13.89 (13:10) 9.17 (11:30) 0 0 0 0 0
25-10-2020 20.9 (11:30) 16.3 (00:00) 18.6 12.78 (10:50) 8.33 (10:30) 0 0 0 0 0
24-10-2020 21.2 (13:00) 16.4 (00:00) 18.8 15 (11:10) 9.44 (11:30) 0 0 0 0 0
23-10-2020 21.7 (13:30) 15.3 (00:00) 18.5 15 (18:50) 7.78 (18:40) 0 0 0 0 0
22-10-2020 21.3 (15:20) 15.8 (00:00) 18.5 6.67 (21:30) 4.17 (15:40) 2 1.4 0.4 0.2 0
21-10-2020 21 (14:20) 18.2 (00:00) 19.6 6.11 (17:10) 4.17 (16:40) 0.4 0 0 0.2 0.2
20-10-2020 26.2 (16:00) 20.3 (00:00) 23.3 20 (12:50) 13.33 (12:40) 0.2 0 0 0.2 0
19-10-2020 28.1 (13:50) 16.8 (00:00) 22.4 8.33 (15:50) 4.17 (15:20) 0 0 0 0 0
18-10-2020 19.4 (12:50) 16.7 (00:00) 18.1 7.78 (14:20) 5.28 (14:10) 0 0 0 0 0
17-10-2020 20.5 (11:00) 17 (00:00) 18.8 6.39 (13:30) 4.17 (15:30) 1.6 1.6 0 0 0
16-10-2020 23.2 (14:50) 17.5 (00:00) 20.4 9.17 (15:20) 5.83 (13:50) 0 0 0 0 0
15-10-2020 25.1 (14:00) 16.8 (00:00) 20.9 8.89 (16:50) 5.83 (09:50) 0 0 0 0 0
14-10-2020 25.8 (12:50) 18.3 (00:00) 22 8.33 (22:00) 5.83 (22:00) 0 0 0 0 0
13-10-2020 34.3 (14:40) 19.8 (00:00) 27 6.67 (23:30) 4.44 (23:30) 0 0 0 0 0
12-10-2020 31.9 (14:50) 17.6 (00:00) 24.8 6.39 (14:10) 4.72 (14:10) 0 0 0 0 0
11-10-2020 24.4 (14:50) 17.6 (00:00) 21 10.56 (11:10) 6.94 (11:50) 0 0 0 0 0
10-10-2020 23.5 (14:00) 16.7 (00:00) 20.1 11.94 (11:50) 7.22 (12:20) 0 0 0 0 0
09-10-2020 23.5 (13:10) 18.2 (00:00) 20.9 10.83 (12:20) 6.67 (11:50) 0 0 0 0 0
08-10-2020 26.8 (14:30) 18 (00:00) 22.4 7.78 (13:50) 4.72 (13:40) 0 0 0 0 0
07-10-2020 25.4 (16:50) 17.5 (00:00) 21.4 7.5 (13:50) 3.89 (13:00) 0 0 0 0 0
06-10-2020 20 (22:10) 17.5 (00:00) 18.8 10.28 (09:10) 6.67 (09:10) 8.6 0 3.6 4 1
05-10-2020 23.9 (13:50) 17.9 (00:00) 20.9 13.33 (11:30) 8.61 (13:50) 0.4 0 0 0 0.4
04-10-2020 23.5 (11:20) 18.3 (00:00) 20.9 13.89 (18:50) 7.78 (18:40) 0 0 0 0 0
03-10-2020 27.3 (13:00) 17.5 (00:00) 22.4 11.11 (14:10) 7.5 (14:10) 0 0 0 0 0
02-10-2020 25.4 (15:50) 16.8 (00:00) 21.1 14.17 (12:10) 8.33 (12:10) 0 0 0 0 0
01-10-2020 24.3 (13:50) 17.6 (08:10) 20.9 13.89 (14:50) 8.33 (14:10) 0 0 0 0 0

Gráficas

Temp. máximas Temp. mínimas Temp. medias Precipitaciones Rachas de viento máximas Velocidades máximas media en intervalos de 10 minutos

Datos horarios

Fecha y hora oficial Temperatura (ºC) Velocidad del viento (km/h) Dirección del viento Racha (km/h) Dirección de racha Precipitación (mm) Presión (hPa) Tendencia (hPa) Humedad (%)
2020-10-30 23:00:00 20.4 10 Norte 18 Oeste 0 -- -- 44
2020-10-30 22:00:00 23 7 Oeste 25 Noroeste 0 -- -- 29
2020-10-30 21:00:00 18.9 11 Noroeste 19 Noroeste 0 -- -- 61
2020-10-30 20:00:00 18.6 0 Calma 9 Noroeste 0 -- -- 90
2020-10-30 19:00:00 19.2 3 Nordeste 16 Nordeste 0 -- -- 87
2020-10-30 18:00:00 20.4 11 Nordeste 19 Nordeste 0 -- -- 85
2020-10-30 17:00:00 21.7 12 Nordeste 21 Nordeste 0 -- -- 80
2020-10-30 16:00:00 22.8 14 Este 26 Este 0 -- -- 76
2020-10-30 15:00:00 23.5 17 Este 26 Nordeste 0 -- -- 72
2020-10-30 14:00:00 23.6 18 Nordeste 28 Este 0 -- -- 71
2020-10-30 13:00:00 23.8 18 Nordeste 29 Este 0 -- -- 68
2020-10-30 12:00:00 24.1 15 Este 24 Este 0 -- -- 65
2020-10-30 11:00:00 23.7 12 Nordeste 21 Este 0 -- -- 63
2020-10-30 10:00:00 22.1 16 Este 23 Este 0 -- -- 65
2020-10-30 09:00:00 20.4 9 Nordeste 16 Nordeste 0 -- -- 67
2020-10-30 08:00:00 17.1 6 Norte 11 Norte 0 -- -- 70
2020-10-30 07:00:00 16.3 6 Norte 10 Noroeste 0 -- -- 69
2020-10-30 06:00:00 16.2 4 Oeste 11 Oeste 0 -- -- 75
2020-10-30 05:00:00 16.2 8 Noroeste 15 Noroeste 0 -- -- 72
2020-10-30 04:00:00 15.9 11 Noroeste 17 Noroeste 0 -- -- 75
2020-10-30 03:00:00 16.1 10 Noroeste 16 Noroeste 0 -- -- 71
2020-10-30 02:00:00 16.4 6 Norte 14 Oeste 0 -- -- 72
2020-10-30 01:00:00 16.3 8 Oeste 16 Oeste 0 -- -- 73
2020-10-30 00:00:00 16.4 6 Noroeste 17 Sudoeste 0 -- -- 66
2020-10-29 23:00:00 16.8 13 Oeste 20 Oeste 0 -- -- 73
2020-10-29 22:00:00 16.9 14 Oeste 20 Oeste 0 -- -- 77
2020-10-29 21:00:00 16.8 0 Calma 9 Noroeste 0 -- -- 80
2020-10-29 20:00:00 17.3 0 Calma 13 Nordeste 0 -- -- 78
2020-10-29 19:00:00 18 13 Nordeste 28 Nordeste 0 -- -- 83
2020-10-29 18:00:00 18.9 15 Nordeste 29 Nordeste 0 -- -- 80
2020-10-29 17:00:00 20.4 17 Nordeste 36 Nordeste 0 -- -- 72
2020-10-29 16:00:00 21.6 20 Nordeste 32 Nordeste 0 -- -- 66
2020-10-29 15:00:00 22.6 20 Este 34 Este 0 -- -- 59
2020-10-29 14:00:00 22.8 22 Nordeste 36 Este 0 -- -- 55
2020-10-29 13:00:00 22.4 16 Este 36 Este 0 -- -- 58
2020-10-29 12:00:00 22.4 16 Este 31 Este 0 -- -- 56
2020-10-29 11:00:00 21.9 21 Nordeste 33 Este 0 -- -- 55
2020-10-29 10:00:00 21.2 14 Este 23 Este 0 -- -- 57
2020-10-29 09:00:00 17.5 3 Nordeste 9 Noroeste 0 -- -- 68
2020-10-29 08:00:00 16 7 Noroeste 15 Oeste 0 -- -- 71
2020-10-29 07:00:00 16.3 6 Noroeste 18 Noroeste 0 -- -- 70
2020-10-29 06:00:00 16.8 9 Noroeste 17 Norte 0 -- -- 70
2020-10-29 05:00:00 17.1 10 Norte 21 Norte 0 -- -- 72
2020-10-29 04:00:00 16.7 12 Norte 20 Norte 0 -- -- 73
2020-10-29 03:00:00 16.2 13 Norte 25 Nordeste 0 -- -- 72
2020-10-29 02:00:00 16.4 10 Norte 18 Norte 0 -- -- 74
2020-10-29 01:00:00 17.1 7 Nordeste 22 Norte 0 -- -- 72
2020-10-29 00:00:00 17.4 17 Nordeste 27 Nordeste 0 -- -- 74
2020-10-28 23:00:00 17.4 8 Norte 23 Nordeste 0 -- -- 73
2020-10-28 22:00:00 17.5 13 Nordeste 27 Nordeste 0 -- -- 81
2020-10-28 21:00:00 17.7 16 Nordeste 31 Nordeste 0 -- -- 77
2020-10-28 20:00:00 17.7 7 Norte 26 Nordeste 0 -- -- 70
2020-10-28 19:00:00 18 14 Nordeste 31 Nordeste 0 -- -- 70
2020-10-28 18:00:00 18.5 20 Nordeste 37 Nordeste 0 -- -- 70
2020-10-28 17:00:00 18.8 20 Nordeste 33 Este 0 -- -- 74
2020-10-28 16:00:00 19 18 Nordeste 32 Este 0 -- -- 74
2020-10-28 15:00:00 19.8 18 Este 30 Este 0 -- -- 68
2020-10-28 14:00:00 19 17 Nordeste 37 Nordeste 0 -- -- 72
2020-10-28 13:00:00 20.2 21 Este 42 Nordeste 0 -- -- 71
2020-10-28 12:00:00 20.7 25 Nordeste 41 Este 0 -- -- 60
2020-10-28 11:00:00 19.5 16 Nordeste 31 Nordeste 0 -- -- 62
2020-10-28 10:00:00 19.3 17 Nordeste 30 Este 0 -- -- 65
2020-10-28 09:00:00 18.6 9 Nordeste 16 Este 0 -- -- 68
2020-10-28 08:00:00 17.1 5 Norte 17 Norte 0 -- -- 74
2020-10-28 07:00:00 16 7 Noroeste 13 Noroeste 0 -- -- 78
2020-10-28 06:00:00 16.2 7 Norte 22 Nordeste 0 -- -- 78
2020-10-28 05:00:00 17 13 Nordeste 19 Nordeste 0 -- -- 79
2020-10-28 04:00:00 17.5 11 Norte 22 Norte 0 -- -- 71
2020-10-28 03:00:00 17.1 9 Norte 16 Norte 0 -- -- 76
2020-10-28 02:00:00 17 11 Norte 18 Norte 0 -- -- 77
2020-10-28 01:00:00 16.8 5 Norte 19 Norte 0 -- -- 77
2020-10-28 00:00:00 17 12 Norte 21 Norte 0 -- -- 74
2020-10-27 23:00:00 16.9 6 Norte 25 Nordeste 0 -- -- 73
2020-10-27 22:00:00 17.5 14 Nordeste 29 Nordeste 0 -- -- 75
2020-10-27 21:00:00 17.9 15 Nordeste 30 Nordeste 0 -- -- 81
2020-10-27 20:00:00 18 14 Nordeste 30 Nordeste 0 -- -- 82
2020-10-27 19:00:00 18.1 18 Nordeste 35 Nordeste 0 -- -- 85
2020-10-27 18:00:00 18.2 19 Nordeste 40 Nordeste 0 -- -- 84
2020-10-27 17:00:00 19.3 19 Nordeste 32 Nordeste 0 -- -- 81
2020-10-27 16:00:00 19.4 20 Nordeste 35 Este 0 -- -- 77
2020-10-27 15:00:00 19.9 22 Nordeste 39 Este 0 -- -- 76
2020-10-27 14:00:00 21.1 21 Nordeste 36 Nordeste 0 -- -- 67
2020-10-27 13:00:00 20.5 22 Nordeste 38 Este 0 -- -- 69
2020-10-27 12:00:00 19.2 19 Nordeste 37 Nordeste 0 -- -- 79
2020-10-27 11:00:00 18.8 23 Nordeste 38 Nordeste 0 -- -- 84
2020-10-27 10:00:00 19.1 20 Nordeste 32 Nordeste 0 -- -- 83
2020-10-27 09:00:00 18.7 15 Nordeste 27 Nordeste 0 -- -- 78
2020-10-27 08:00:00 17 10 Norte 20 Norte 0 -- -- 77
2020-10-27 07:00:00 16.2 10 Norte 19 Norte 0 -- -- 77
2020-10-27 06:00:00 16 10 Norte 16 Norte 0 -- -- 78
2020-10-27 05:00:00 15.8 8 Noroeste 16 Norte 0 -- -- 77
2020-10-27 04:00:00 16.1 9 Norte 18 Norte 0 -- -- 80
2020-10-27 03:00:00 16.3 8 Norte 19 Norte 0 -- -- 81
2020-10-27 02:00:00 16.3 8 Norte 14 Norte 0 -- -- 77
2020-10-27 01:00:00 16.5 9 Norte 19 Norte 0 -- -- 77
2020-10-27 00:00:00 16.6 10 Norte 16 Norte 0 -- -- 77
2020-10-26 23:00:00 17.3 12 Nordeste 24 Nordeste 0 -- -- 85
2020-10-26 22:00:00 17.4 12 Nordeste 22 Nordeste 0 -- -- 77
2020-10-26 21:00:00 16.9 10 Nordeste 15 Norte 0 -- -- 78
2020-10-26 20:00:00 17.5 12 Nordeste 30 Nordeste 0 -- -- 79
2020-10-26 19:00:00 18.1 19 Nordeste 41 Nordeste 0 -- -- 81
2020-10-26 18:00:00 18.5 24 Nordeste 41 Nordeste 0 -- -- 78
2020-10-26 17:00:00 19.8 24 Nordeste 43 Nordeste 0 -- -- 72
2020-10-26 16:00:00 20.9 21 Nordeste 39 Norte 0 -- -- 68
2020-10-26 15:00:00 21.3 24 Nordeste 40 Nordeste 0 -- -- 66
2020-10-26 14:00:00 21.6 27 Nordeste 50 Nordeste 0 -- -- 65
2020-10-26 13:00:00 21.5 29 Nordeste 48 Este 0 -- -- 65
2020-10-26 12:00:00 21.5 28 Nordeste 49 Nordeste 0 -- -- 63
2020-10-26 11:00:00 20.9 29 Nordeste 46 Nordeste 0 -- -- 64
2020-10-26 10:00:00 20.2 23 Nordeste 41 Nordeste 0 -- -- 67
2020-10-26 09:00:00 19 24 Nordeste 42 Este 0 -- -- 69
2020-10-26 08:00:00 16.6 14 Nordeste 25 Norte 0 -- -- 77
2020-10-26 07:00:00 16.1 11 Norte 27 Nordeste 0 -- -- 78
2020-10-26 06:00:00 15.8 12 Nordeste 26 Nordeste 0 -- -- 78
2020-10-26 05:00:00 15.9 14 Nordeste 26 Nordeste 0 -- -- 78
2020-10-26 04:00:00 16 13 Nordeste 27 Este 0 -- -- 79
2020-10-26 03:00:00 15.9 13 Nordeste 21 Nordeste 0 -- -- 79
2020-10-26 02:00:00 16.1 9 Norte 26 Nordeste 0 -- -- 79
2020-10-26 01:00:00 16.4 12 Nordeste 23 Nordeste 0 -- -- 79
2020-10-26 00:00:00 16.7 14 Nordeste 28 Norte 0 -- -- 78
2020-10-25 23:00:00 16.7 13 Nordeste 25 Nordeste 0 -- -- 78
2020-10-25 22:00:00 16.9 14 Nordeste 30 Nordeste 0 -- -- 75
2020-10-25 21:00:00 17.2 18 Nordeste 34 Nordeste 0 -- -- 76
2020-10-25 20:00:00 17.7 22 Nordeste 40 Nordeste 0 -- -- 77
2020-10-25 19:00:00 17.7 21 Nordeste 37 Nordeste 0 -- -- 78
2020-10-25 18:00:00 18.3 21 Nordeste 40 Nordeste 0 -- -- 75
2020-10-25 17:00:00 19.4 24 Nordeste 45 Nordeste 0 -- -- 72
2020-10-25 16:00:00 20.2 25 Nordeste 40 Nordeste 0 -- -- 67
2020-10-25 15:00:00 20.3 26 Nordeste 42 Nordeste 0 -- -- 69
2020-10-25 14:00:00 20.9 26 Nordeste 43 Nordeste 0 -- -- 66
2020-10-25 13:00:00 20.1 26 Nordeste 41 Nordeste 0 -- -- 69
2020-10-25 12:00:00 20.4 23 Nordeste 42 Nordeste 0 -- -- 71
2020-10-25 11:00:00 19.8 26 Nordeste 46 Nordeste 0 -- -- 71
2020-10-25 10:00:00 19 22 Nordeste 41 Nordeste 0 -- -- 76
2020-10-25 09:00:00 18.8 18 Nordeste 38 Nordeste 0 -- -- 73
2020-10-25 08:00:00 17.6 17 Nordeste 31 Nordeste 0 -- -- 75
2020-10-25 07:00:00 16.7 17 Nordeste 24 Norte 0 -- -- 79
2020-10-25 06:00:00 16.3 11 Nordeste 21 Nordeste 0 -- -- 80
2020-10-25 05:00:00 16.4 10 Norte 30 Nordeste 0 -- -- 77
2020-10-25 04:00:00 16.8 15 Nordeste 40 Nordeste 0 -- -- 80
2020-10-25 03:00:00 16.8 14 Nordeste 37 Nordeste 0 -- -- 75
2020-10-25 02:00:00 17 19 Nordeste 34 Nordeste 0 -- -- 74
2020-10-25 01:00:00 17.1 22 Nordeste 37 Nordeste 0 -- -- 74
2020-10-25 00:00:00 16.7 17 Nordeste 40 Nordeste 0 -- -- 73
2020-10-24 23:00:00 17.2 17 Nordeste 38 Nordeste 0 -- -- 74
2020-10-24 22:00:00 17.6 20 Nordeste 35 Nordeste 0 -- -- 75
2020-10-24 21:00:00 17.3 14 Nordeste 36 Nordeste 0 -- -- 77
2020-10-24 20:00:00 17.7 20 Nordeste 31 Nordeste 0 -- -- 78
2020-10-24 19:00:00 18.4 20 Nordeste 36 Nordeste 0 -- -- 69
2020-10-24 18:00:00 19.3 20 Nordeste 41 Nordeste 0 -- -- 66
2020-10-24 17:00:00 20 24 Nordeste 45 Nordeste 0 -- -- 64
2020-10-24 16:00:00 20.3 27 Nordeste 42 Nordeste 0 -- -- 67
2020-10-24 15:00:00 19.7 24 Nordeste 40 Este 0 -- -- 71
2020-10-24 14:00:00 20.1 27 Nordeste 45 Nordeste 0 -- -- 69
2020-10-24 13:00:00 21.2 29 Nordeste 49 Nordeste 0 -- -- 56
2020-10-24 12:00:00 20 28 Nordeste 54 Nordeste 0 -- -- 64
2020-10-24 11:00:00 19.4 26 Nordeste 46 Nordeste 0 -- -- 71
2020-10-24 10:00:00 19.3 22 Nordeste 45 Nordeste 0 -- -- 55
2020-10-24 09:00:00 17.2 23 Nordeste 44 Nordeste 0 -- -- 67
2020-10-24 08:00:00 16.9 26 Nordeste 54 Nordeste 0 -- -- 65
2020-10-24 07:00:00 16.4 18 Nordeste 36 Nordeste 0 -- -- 71
2020-10-24 06:00:00 16.7 23 Nordeste 41 Nordeste 0 -- -- 78
2020-10-24 05:00:00 16.7 19 Nordeste 32 Nordeste 0 -- -- 69
2020-10-24 04:00:00 16.6 20 Nordeste 39 Nordeste 0 -- -- 65
2020-10-24 03:00:00 17 19 Nordeste 38 Nordeste 0 -- -- 64
2020-10-24 02:00:00 17.4 23 Nordeste 41 Nordeste 0 -- -- 61
2020-10-24 01:00:00 17 18 Nordeste 40 Nordeste 0 -- -- 56
2020-10-24 00:00:00 17 19 Nordeste 43 Nordeste 0 -- -- 67
2020-10-23 23:00:00 17.3 26 Nordeste 46 Nordeste 0 -- -- 63
2020-10-23 22:00:00 16.9 22 Nordeste 39 Nordeste 0 -- -- 61
2020-10-23 21:00:00 16.9 21 Nordeste 37 Nordeste 0 -- -- 69
2020-10-23 20:00:00 17.3 23 Nordeste 41 Nordeste 0 -- -- 71
2020-10-23 19:00:00 18.2 26 Nordeste 54 Nordeste 0 -- -- 67
2020-10-23 18:00:00 19.7 23 Nordeste 40 Nordeste 0 -- -- 63
2020-10-23 17:00:00 20.5 25 Nordeste 46 Nordeste 0 -- -- 58
2020-10-23 16:00:00 21.1 25 Nordeste 43 Nordeste 0 -- -- 52
2020-10-23 15:00:00 21.3 28 Nordeste 43 Nordeste 0 -- -- 52
2020-10-23 14:00:00 21.4 26 Nordeste 41 Este 0 -- -- 51
2020-10-23 13:00:00 21.2 26 Nordeste 40 Este 0 -- -- 53
2020-10-23 12:00:00 20.7 24 Nordeste 37 Este 0 -- -- 59
2020-10-23 11:00:00 20.1 24 Nordeste 35 Nordeste 0 -- -- 61
2020-10-23 10:00:00 18.8 20 Nordeste 34 Nordeste 0 -- -- 63
2020-10-23 09:00:00 16.6 17 Nordeste 27 Nordeste 0 -- -- 67
2020-10-23 08:00:00 15.5 12 Norte 23 Noroeste 0 -- -- 71
2020-10-23 07:00:00 15.5 13 Norte 21 Norte 0 -- -- 71
2020-10-23 06:00:00 15.4 9 Norte 17 Norte 0 -- -- 76
2020-10-23 05:00:00 15.8 9 Norte 17 Nordeste 0 -- -- 73
2020-10-23 04:00:00 15.7 5 Noroeste 15 Norte 0 -- -- 75
2020-10-23 03:00:00 15.7 5 Norte 13 Noroeste 0 -- -- 75
2020-10-23 02:00:00 15.4 7 Noroeste 14 Norte 0 -- -- 77
2020-10-23 01:00:00 15.7 7 Norte 13 Nordeste 0 -- -- 78
2020-10-23 00:00:00 15.8 5 Noroeste 13 Oeste 0 -- -- 79
2020-10-22 23:00:00 16.5 4 Norte 12 Norte 0 -- -- 79
2020-10-22 22:00:00 16.9 9 Nordeste 24 Nordeste 0 -- -- 77
2020-10-22 21:00:00 17.7 12 Nordeste 22 Nordeste 0 -- -- 74
2020-10-22 20:00:00 18 9 Este 19 Este 0 -- -- 73
2020-10-22 19:00:00 19.1 9 Este 23 Este 0 -- -- 68
2020-10-22 18:00:00 20.1 6 Sur 12 Sur 0 -- -- 62
2020-10-22 17:00:00 20.1 3 Nordeste 16 Este 0 -- -- 63
2020-10-22 16:00:00 20.3 8 Sudeste 23 Sur 0 -- -- 63
2020-10-22 15:00:00 20.7 7 Sur 15 Sudoeste 0 -- -- 64
2020-10-22 14:00:00 19.3 9 Sudeste 20 Sudeste 0.2 -- -- 73
2020-10-22 13:00:00 20.1 12 Sudeste 21 Sur 0 -- -- 72
2020-10-22 12:00:00 19.9 10 Sur 19 Sudoeste 0 -- -- 71
2020-10-22 11:00:00 21.2 4 Este 13 Sudeste 0 -- -- 66
2020-10-22 10:00:00 19.3 6 Sur 11 Sur 0 -- -- 75
2020-10-22 09:00:00 16.9 9 Noroeste 15 Noroeste 0 -- -- 75
2020-10-22 08:00:00 16.4 8 Noroeste 15 Noroeste 0.2 -- -- 83
2020-10-22 07:00:00 16.6 12 Noroeste 20 Noroeste 0.2 -- -- 82
2020-10-22 06:00:00 17.2 7 Sudoeste 14 Noroeste 1.4 -- -- 86
2020-10-22 05:00:00 17.5 3 Nordeste 14 Noroeste 0 -- -- 86
2020-10-22 04:00:00 17.1 5 Noroeste 12 Oeste 0 -- -- 81
2020-10-22 03:00:00 17.2 8 Noroeste 15 Noroeste 0 -- -- 75
2020-10-22 02:00:00 17.5 9 Oeste 13 Oeste 0 -- -- 78
2020-10-22 01:00:00 17.8 6 Oeste 9 Oeste 0 -- -- 81
2020-10-22 00:00:00 18.3 7 Noroeste 10 Noroeste 0 -- -- 81
2020-10-21 23:00:00 18.3 6 Noroeste 9 Noroeste 0 -- -- 84
2020-10-21 22:00:00 18.4 4 Norte 7 Norte 0 -- -- 85
2020-10-21 21:00:00 18.6 5 Nordeste 13 Nordeste 0.2 -- -- 87
2020-10-21 20:00:00 19.3 8 Nordeste 19 Nordeste 0 -- -- 80
2020-10-21 19:00:00 19.8 9 Nordeste 18 Nordeste 0 -- -- 77
2020-10-21 18:00:00 20.2 12 Nordeste 22 Nordeste 0 -- -- 76
2020-10-21 17:00:00 20.5 14 Nordeste 22 Nordeste 0 -- -- 76
2020-10-21 16:00:00 20.6 11 Nordeste 19 Nordeste 0 -- -- 72
2020-10-21 15:00:00 20.7 10 Nordeste 19 Nordeste 0 -- -- 75
2020-10-21 14:00:00 20.2 9 Este 18 Este 0.2 -- -- 82
2020-10-21 13:00:00 20.4 5 Este 15 Este 0 -- -- 81
2020-10-21 12:00:00 20.2 9 Este 18 Este 0 -- -- 79
2020-10-21 11:00:00 20.9 5 Sudeste 18 Sur 0 -- -- 75
2020-10-21 10:00:00 20.5 8 Sur 18 Sudoeste 0 -- -- 78
2020-10-21 09:00:00 19.7 8 Sudoeste 13 Sudoeste 0 -- -- 83
2020-10-21 08:00:00 18.8 3 Oeste 6 Oeste 0 -- -- 87
2020-10-21 07:00:00 18.7 6 Oeste 9 Oeste 0 -- -- 88
2020-10-21 06:00:00 18.8 3 Nordeste 16 Norte 0 -- -- 91
2020-10-21 05:00:00 19 6 Norte 10 Nordeste 0 -- -- 90
2020-10-21 04:00:00 19.2 8 Nordeste 12 Nordeste 0 -- -- 90
2020-10-21 03:00:00 19.4 4 Nordeste 11 Este 0 -- -- 90
2020-10-21 02:00:00 19.7 6 Este 11 Este 0 -- -- 89
2020-10-21 01:00:00 20 3 Este 8 Sur 0 -- -- 88
2020-10-21 00:00:00 20.3 7 Sur 10 Sudeste 0 -- -- 86
2020-10-20 23:00:00 20.7 5 Sur 9 Sur 0 -- -- 85
2020-10-20 22:00:00 20.8 3 Sur 7 Este 0 -- -- 86
2020-10-20 21:00:00 20.9 6 Este 13 Sudeste 0 -- -- 83
2020-10-20 20:00:00 22 7 Sudeste 14 Sudeste 0 -- -- 77
2020-10-20 19:00:00 22.9 6 Sudeste 16 Este 0 -- -- 73
2020-10-20 18:00:00 23.4 12 Nordeste 28 Nordeste 0 -- -- 76
2020-10-20 17:00:00 23.8 19 Nordeste 29 Nordeste 0 -- -- 78
2020-10-20 16:00:00 26.2 14 Nordeste 34 Oeste 0 -- -- 70
2020-10-20 15:00:00 23.9 22 Sudoeste 59 Sur 0.2 -- -- 75
2020-10-20 14:00:00 24.2 48 Sur 65 Sur 0 -- -- 73
2020-10-20 13:00:00 24.5 45 Sur 72 Sur 0 -- -- 74
2020-10-20 12:00:00 25.2 45 Sur 70 Sur 0 -- -- 64
2020-10-20 11:00:00 22.9 41 Sur 61 Sur 0 -- -- 69
2020-10-20 10:00:00 22.7 42 Sur 66 Sudoeste 0 -- -- 73
2020-10-20 09:00:00 22.4 37 Sudoeste 66 Sudoeste 0 -- -- 69
2020-10-20 08:00:00 24.1 36 Sudoeste 69 Sudoeste 0 -- -- 51
2020-10-20 07:00:00 24 31 Sudoeste 46 Sudoeste 0 -- -- 51
2020-10-20 06:00:00 24.7 29 Sudoeste 45 Sur 0 -- -- 44
2020-10-20 05:00:00 24.6 31 Sudoeste 50 Sudoeste 0 -- -- 46
2020-10-20 04:00:00 25.2 31 Sudoeste 55 Sur 0 -- -- 40
2020-10-20 03:00:00 24 30 Sudoeste 44 Sudoeste 0 -- -- 53
2020-10-20 02:00:00 23.8 30 Sudoeste 46 Sudoeste 0 -- -- 61
2020-10-20 01:00:00 20.3 5 Noroeste 8 Norte 0 -- -- 76
2020-10-20 00:00:00 20.6 2 Oeste 9 Noroeste 0 -- -- 77
2020-10-19 23:00:00 20.8 4 Noroeste 11 Noroeste 0 -- -- 81
2020-10-19 22:00:00 21.6 2 Sudoeste 8 Sur 0 -- -- 82
2020-10-19 21:00:00 22 0 Calma 6 Este 0 -- -- 81
2020-10-19 20:00:00 23.1 2 Nordeste 6 Sur 0 -- -- 79
2020-10-19 19:00:00 24.6 5 Sudeste 13 Sudeste 0 -- -- 74
2020-10-19 18:00:00 26.7 7 Sudeste 18 Este 0 -- -- 64
2020-10-19 17:00:00 26.8 12 Este 23 Este 0 -- -- 63
2020-10-19 16:00:00 27.3 15 Este 30 Nordeste 0 -- -- 57
2020-10-19 15:00:00 27.4 13 Nordeste 25 Este 0 -- -- 58
2020-10-19 14:00:00 27.9 12 Nordeste 19 Nordeste 0 -- -- 58
2020-10-19 13:00:00 26.5 8 Este 20 Este 0 -- -- 61
2020-10-19 12:00:00 25.3 10 Este 21 Este 0 -- -- 65
2020-10-19 11:00:00 23.4 5 Sudeste 12 Sudeste 0 -- -- 72
2020-10-19 10:00:00 21.3 4 Sudeste 8 Sudeste 0 -- -- 78
2020-10-19 09:00:00 18.8 0 Calma 13 Noroeste 0 -- -- 84
2020-10-19 08:00:00 17.4 4 Norte 12 Noroeste 0 -- -- 86
2020-10-19 07:00:00 17.3 8 Noroeste 12 Noroeste 0 -- -- 84
2020-10-19 06:00:00 17 6 Noroeste 11 Noroeste 0 -- -- 84
2020-10-19 05:00:00 16.8 8 Noroeste 12 Noroeste 0 -- -- 88
2020-10-19 04:00:00 16.9 6 Noroeste 12 Noroeste 0 -- -- 90
2020-10-19 03:00:00 17.1 6 Noroeste 11 Noroeste 0 -- -- 87
2020-10-19 02:00:00 17.3 3 Norte 12 Noroeste 0 -- -- 86
2020-10-19 01:00:00 17.3 5 Noroeste 10 Noroeste 0 -- -- 86
2020-10-19 00:00:00 17.9 6 Noroeste 13 Norte 0 -- -- 85
2020-10-18 23:00:00 18.4 0 Calma 12 Sur 0 -- -- 89
2020-10-18 22:00:00 18.6 8 Sur 19 Sudoeste 0 -- -- 89
2020-10-18 21:00:00 18.7 12 Sur 21 Sur 0 -- -- 89
2020-10-18 20:00:00 18.9 10 Sudoeste 28 Sudoeste 0 -- -- 88
2020-10-18 19:00:00 19.1 17 Sudoeste 28 Sudoeste 0 -- -- 88
2020-10-18 18:00:00 19.1 15 Sudoeste 27 Sudoeste 0 -- -- 87
2020-10-18 17:00:00 18.9 17 Sur 28 Sur 0 -- -- 88
2020-10-18 16:00:00 19 19 Sur 27 Sur 0 -- -- 88
2020-10-18 15:00:00 19.2 18 Sur 28 Sur 0 -- -- 86
2020-10-18 14:00:00 19.3 18 Sur 26 Sur 0 -- -- 85
2020-10-18 13:00:00 19.3 15 Sur 24 Sudoeste 0 -- -- 86
2020-10-18 12:00:00 18.9 14 Sudoeste 24 Sudoeste 0 -- -- 90
2020-10-18 11:00:00 18.8 12 Sudoeste 20 Sudoeste 0 -- -- 89
2020-10-18 10:00:00 18.4 10 Sudoeste 19 Sur 0 -- -- 90
2020-10-18 09:00:00 17.8 6 Oeste 15 Oeste 0 -- -- 90
2020-10-18 08:00:00 17.8 0 Calma 12 Sudoeste 0 -- -- 90
2020-10-18 07:00:00 17.8 0 Calma 11 Sudoeste 0 -- -- 88
2020-10-18 06:00:00 17.6 5 Sur 8 Sur 0 -- -- 87
2020-10-18 05:00:00 17.6 5 Oeste 9 Sudoeste 0 -- -- 85
2020-10-18 04:00:00 17.6 5 Oeste 15 Oeste 0 -- -- 84
2020-10-18 03:00:00 17.4 5 Oeste 11 Oeste 0 -- -- 86
2020-10-18 02:00:00 17 5 Oeste 12 Oeste 0 -- -- 86
2020-10-18 01:00:00 16.7 5 Noroeste 10 Nordeste 0 -- -- 92
2020-10-18 00:00:00 17 5 Nordeste 8 Nordeste 0 -- -- 92
2020-10-17 23:00:00 17.5 5 Nordeste 6 Este 0 -- -- 91
2020-10-17 22:00:00 17.4 3 Norte 5 Nordeste 0 -- -- 92
2020-10-17 21:00:00 17.4 2 Este 6 Nordeste 0 -- -- 92
2020-10-17 20:00:00 17.7 5 Nordeste 15 Este 0 -- -- 92
2020-10-17 19:00:00 18.7 8 Este 17 Nordeste 0 -- -- 84
2020-10-17 18:00:00 19.3 10 Nordeste 15 Nordeste 0 -- -- 79
2020-10-17 17:00:00 18.7 10 Nordeste 15 Nordeste 0 -- -- 83
2020-10-17 16:00:00 18.9 10 Nordeste 21 Nordeste 0 -- -- 85
2020-10-17 15:00:00 19.3 13 Nordeste 19 Este 0 -- -- 85
2020-10-17 14:00:00 19.6 13 Nordeste 23 Este 0 -- -- 85
2020-10-17 13:00:00 19.3 10 Nordeste 17 Este 0 -- -- 82
2020-10-17 12:00:00 20 12 Este 20 Nordeste 0 -- -- 75
2020-10-17 11:00:00 20.5 9 Este 19 Nordeste 0 -- -- 78
2020-10-17 10:00:00 18.3 10 Nordeste 18 Nordeste 0 -- -- 86
2020-10-17 09:00:00 17.4 8 Nordeste 13 Norte 0 -- -- 87
2020-10-17 08:00:00 17.1 9 Nordeste 17 Nordeste 0 -- -- 88
2020-10-17 07:00:00 17.2 9 Norte 15 Norte 0 -- -- 90
2020-10-17 06:00:00 17.3 5 Norte 14 Norte 0.2 -- -- 91
2020-10-17 05:00:00 17.4 7 Norte 15 Nordeste 0 -- -- 93
2020-10-17 04:00:00 17.4 8 Nordeste 13 Nordeste 0 -- -- 93
2020-10-17 03:00:00 17.4 3 Norte 15 Nordeste 0 -- -- 92
2020-10-17 02:00:00 17.4 8 Norte 15 Nordeste 0.6 -- -- 93
2020-10-17 01:00:00 17.8 8 Nordeste 18 Este 0.8 -- -- 92
2020-10-17 00:00:00 18.1 12 Nordeste 22 Nordeste 0 -- -- 89
2020-10-16 23:00:00 18.5 8 Nordeste 18 Nordeste 0 -- -- 84
2020-10-16 22:00:00 18.6 10 Nordeste 22 Norte 0 -- -- 82
2020-10-16 21:00:00 18.5 12 Nordeste 27 Nordeste 0 -- -- 82
2020-10-16 20:00:00 18.8 13 Nordeste 24 Nordeste 0 -- -- 81
2020-10-16 19:00:00 19.3 13 Nordeste 22 Nordeste 0 -- -- 80
2020-10-16 18:00:00 20 15 Nordeste 27 Nordeste 0 -- -- 77
2020-10-16 17:00:00 21.1 16 Nordeste 29 Nordeste 0 -- -- 75
2020-10-16 16:00:00 21.9 18 Nordeste 33 Nordeste 0 -- -- 73
2020-10-16 15:00:00 23.2 18 Nordeste 31 Nordeste 0 -- -- 65
2020-10-16 14:00:00 22.6 19 Este 32 Nordeste 0 -- -- 69
2020-10-16 13:00:00 22.9 17 Este 30 Nordeste 0 -- -- 67
2020-10-16 12:00:00 22 19 Este 28 Este 0 -- -- 71
2020-10-16 11:00:00 21.1 15 Nordeste 23 Este 0 -- -- 74
2020-10-16 10:00:00 19.4 11 Nordeste 21 Nordeste 0 -- -- 79
2020-10-16 09:00:00 18.4 9 Nordeste 15 Nordeste 0 -- -- 83
2020-10-16 08:00:00 17.9 9 Norte 14 Nordeste 0 -- -- 84
2020-10-16 07:00:00 17.9 9 Nordeste 22 Nordeste 0 -- -- 86
2020-10-16 06:00:00 18 13 Nordeste 22 Nordeste 0 -- -- 88
2020-10-16 05:00:00 17.5 9 Nordeste 24 Nordeste 0 -- -- 86
2020-10-16 04:00:00 18 13 Nordeste 20 Norte 0 -- -- 87
2020-10-16 03:00:00 17.7 8 Nordeste 23 Nordeste 0 -- -- 89
2020-10-16 02:00:00 18.2 15 Nordeste 30 Nordeste 0 -- -- 87
2020-10-16 01:00:00 18.3 13 Nordeste 25 Nordeste 0 -- -- 88
2020-10-16 00:00:00 18.4 16 Nordeste 28 Nordeste 0 -- -- 88
2020-10-15 23:00:00 18.7 17 Nordeste 28 Nordeste 0 -- -- 87
2020-10-15 22:00:00 18.7 14 Nordeste 26 Nordeste 0 -- -- 88
2020-10-15 21:00:00 18.7 16 Nordeste 26 Nordeste 0 -- -- 88
2020-10-15 20:00:00 19.1 15 Nordeste 24 Nordeste 0 -- -- 87
2020-10-15 19:00:00 19.9 15 Nordeste 23 Nordeste 0 -- -- 84
2020-10-15 18:00:00 21.4 15 Nordeste 24 Nordeste 0 -- -- 77
2020-10-15 17:00:00 23.1 15 Este 32 Nordeste 0 -- -- 71
2020-10-15 16:00:00 23.3 15 Nordeste 29 Este 0 -- -- 70
2020-10-15 15:00:00 24 19 Nordeste 28 Nordeste 0 -- -- 67
2020-10-15 14:00:00 25.1 12 Este 22 Nordeste 0 -- -- 63
2020-10-15 13:00:00 24.1 16 Nordeste 26 Nordeste 0 -- -- 66
2020-10-15 12:00:00 23.5 15 Este 26 Este 0 -- -- 67
2020-10-15 11:00:00 22.1 18 Nordeste 27 Este 0 -- -- 71
2020-10-15 10:00:00 20.2 19 Nordeste 30 Nordeste 0 -- -- 77
2020-10-15 09:00:00 18.1 12 Nordeste 22 Nordeste 0 -- -- 86
2020-10-15 08:00:00 17.1 12 Norte 26 Nordeste 0 -- -- 89
2020-10-15 07:00:00 16.9 5 Nordeste 19 Nordeste 0 -- -- 88
2020-10-15 06:00:00 16.9 8 Norte 23 Nordeste 0 -- -- 87
2020-10-15 05:00:00 17 10 Nordeste 24 Norte 0 -- -- 88
2020-10-15 04:00:00 17.1 10 Nordeste 27 Nordeste 0 -- -- 88
2020-10-15 03:00:00 17 12 Nordeste 24 Norte 0 -- -- 91
2020-10-15 02:00:00 17.4 11 Nordeste 21 Nordeste 0 -- -- 92
2020-10-15 01:00:00 17.8 10 Nordeste 22 Nordeste 0 -- -- 90
2020-10-15 00:00:00 18.3 15 Nordeste 27 Nordeste 0 -- -- 90
2020-10-14 23:00:00 18.4 17 Nordeste 30 Nordeste 0 -- -- 91
2020-10-14 22:00:00 18.9 21 Nordeste 30 Nordeste 0 -- -- 90
2020-10-14 21:00:00 18.9 16 Nordeste 26 Nordeste 0 -- -- 89
2020-10-14 20:00:00 19.3 13 Nordeste 19 Nordeste 0 -- -- 88
2020-10-14 19:00:00 20.5 11 Nordeste 20 Este 0 -- -- 83
2020-10-14 18:00:00 22.1 14 Nordeste 28 Este 0 -- -- 77
2020-10-14 17:00:00 23.7 16 Nordeste 26 Nordeste 0 -- -- 72
2020-10-14 16:00:00 24.1 15 Nordeste 27 Este 0 -- -- 72
2020-10-14 15:00:00 24.6 17 Nordeste 27 Este 0 -- -- 70
2020-10-14 14:00:00 25.3 16 Este 25 Este 0 -- -- 67
2020-10-14 13:00:00 25.7 15 Nordeste 24 Este 0 -- -- 65
2020-10-14 12:00:00 24.4 14 Este 22 Este 0 -- -- 70
2020-10-14 11:00:00 23.7 12 Nordeste 17 Este 0 -- -- 69
2020-10-14 10:00:00 22.6 9 Nordeste 12 Norte 0 -- -- 63
2020-10-14 09:00:00 19.9 8 Norte 13 Norte 0 -- -- 48
2020-10-14 08:00:00 19 5 Norte 14 Norte 0 -- -- 47
2020-10-14 07:00:00 19.7 5 Norte 23 Nordeste 0 -- -- 42
2020-10-14 06:00:00 21.1 16 Nordeste 26 Nordeste 0 -- -- 33
2020-10-14 05:00:00 21.2 8 Nordeste 22 Nordeste 0 -- -- 35
2020-10-14 04:00:00 21.8 10 Nordeste 20 Norte 0 -- -- 27
2020-10-14 03:00:00 20.3 11 Nordeste 18 Norte 0 -- -- 41
2020-10-14 02:00:00 19.4 6 Norte 17 Norte 0 -- -- 58
2020-10-14 01:00:00 19.9 10 Nordeste 19 Nordeste 0 -- -- 63
2020-10-14 00:00:00 20.2 13 Nordeste 24 Nordeste 0 -- -- 54
2020-10-13 23:00:00 20.1 7 Norte 15 Nordeste 0 -- -- 79
2020-10-13 22:00:00 20.7 8 Nordeste 13 Norte 0 -- -- 55
2020-10-13 21:00:00 20.9 4 Norte 10 Nordeste 0 -- -- 82
2020-10-13 20:00:00 22.2 4 Este 8 Nordeste 0 -- -- 80
2020-10-13 19:00:00 23.9 4 Nordeste 15 Nordeste 0 -- -- 76
2020-10-13 18:00:00 26 9 Nordeste 16 Nordeste 0 -- -- 71
2020-10-13 17:00:00 28.2 9 Nordeste 16 Este 0 -- -- 62
2020-10-13 16:00:00 33.3 6 Este 18 Sudeste 0 -- -- 36
2020-10-13 15:00:00 33.9 10 Sudeste 20 Sudeste 0 -- -- 26
2020-10-13 14:00:00 33.9 12 Sudeste 21 Sudeste 0 -- -- 22
2020-10-13 13:00:00 30.8 12 Sur 21 Sudoeste 0 -- -- 24
2020-10-13 12:00:00 26.7 5 Este 21 Este 0 -- -- 57
2020-10-13 11:00:00 26.7 12 Nordeste 23 Sudeste 0 -- -- 52
2020-10-13 10:00:00 25.9 7 Este 14 Sudeste 0 -- -- 42
2020-10-13 09:00:00 -- -- -- -- -- -- -- -- --
2020-10-13 08:00:00 24.4 8 Norte 15 Noroeste 0 -- -- 25
2020-10-13 07:00:00 24.6 7 Norte 17 Norte 0 -- -- 24
2020-10-13 06:00:00 24.2 8 Norte 20 Norte 0 -- -- 25
2020-10-13 05:00:00 24.6 9 Norte 16 Norte 0 -- -- 27
2020-10-13 04:00:00 24.5 8 Norte 18 Nordeste 0 -- -- 28
2020-10-13 03:00:00 24.4 7 Nordeste 18 Nordeste 0 -- -- 29
2020-10-13 02:00:00 23.9 4 Norte 14 Norte 0 -- -- 31
2020-10-13 01:00:00 23.3 6 Norte 14 Nordeste 0 -- -- 35
2020-10-13 00:00:00 -- -- -- -- -- -- -- -- --
2020-10-12 23:00:00 23.3 5 Norte 12 Noroeste 0 -- -- 47
2020-10-12 22:00:00 23.2 4 Nordeste 10 Noroeste 0 -- -- 61
2020-10-12 21:00:00 24.6 5 Norte 11 Norte 0 -- -- 48
2020-10-12 20:00:00 23.2 6 Norte 10 Norte 0 -- -- 76
2020-10-12 19:00:00 25.3 5 Norte 8 Nordeste 0 -- -- 69
2020-10-12 18:00:00 27.2 5 Norte 16 Este 0 -- -- 63
2020-10-12 17:00:00 27.5 9 Este 18 Este 0 -- -- 60
2020-10-12 16:00:00 29.8 5 Nordeste 23 Nordeste 0 -- -- 54
2020-10-12 15:00:00 31.6 14 Nordeste 23 Nordeste 0 -- -- 39
2020-10-12 14:00:00 30.9 13 Nordeste 23 Nordeste 0 -- -- 42
2020-10-12 13:00:00 30.4 12 Nordeste 18 Nordeste 0 -- -- 44
2020-10-12 12:00:00 29.8 9 Nordeste 14 Nordeste 0 -- -- 54
2020-10-12 11:00:00 27.2 5 Nordeste 10 Norte 0 -- -- 59
2020-10-12 10:00:00 27.1 7 Norte 22 Norte 0 -- -- 39
2020-10-12 09:00:00 25.2 12 Nordeste 22 Norte 0 -- -- 32
2020-10-12 08:00:00 22.8 12 Norte 21 Norte 0 -- -- 39
2020-10-12 07:00:00 21.6 11 Norte 19 Norte 0 -- -- 47
2020-10-12 06:00:00 19.2 11 Norte 16 Norte 0 -- -- 65
2020-10-12 05:00:00 17.8 10 Norte 17 Norte 0 -- -- 94
2020-10-12 04:00:00 17.8 4 Norte 14 Norte 0 -- -- 94
2020-10-12 03:00:00 -- -- -- -- -- -- -- -- --
2020-10-12 02:00:00 18.1 6 Norte 17 Norte 0 -- -- 92
2020-10-12 01:00:00 18.9 12 Norte 22 Nordeste 0 -- -- 92
2020-10-12 00:00:00 19 15 Nordeste 27 Nordeste 0 -- -- 92
2020-10-11 23:00:00 19 13 Nordeste 28 Nordeste 0 -- -- 91
2020-10-11 22:00:00 19.4 16 Nordeste 28 Nordeste 0 -- -- 91
2020-10-11 21:00:00 19.7 19 Nordeste 30 Nordeste 0 -- -- 91
2020-10-11 20:00:00 -- -- -- -- -- -- -- -- --
2020-10-11 19:00:00 -- -- -- -- -- -- -- -- --
2020-10-11 18:00:00 22.1 20 Nordeste 36 Nordeste 0 -- -- 79
2020-10-11 17:00:00 22.4 23 Nordeste 36 Nordeste 0 -- -- 78
2020-10-11 16:00:00 23.7 21 Nordeste 32 Nordeste 0 -- -- 73
2020-10-11 15:00:00 24.3 21 Nordeste 36 Nordeste 0 -- -- 70
2020-10-11 14:00:00 24.1 23 Nordeste 34 Nordeste 0 -- -- 72
2020-10-11 13:00:00 23.8 23 Nordeste 35 Este 0 -- -- 71
2020-10-11 12:00:00 23.4 24 Nordeste 38 Nordeste 0 -- -- 73
2020-10-11 11:00:00 22.5 23 Nordeste 33 Nordeste 0 -- -- 74
2020-10-11 10:00:00 21.4 17 Nordeste 33 Nordeste 0 -- -- 73
2020-10-11 09:00:00 19.3 16 Nordeste 30 Nordeste 0 -- -- 81
2020-10-11 08:00:00 18 17 Nordeste 29 Nordeste 0 -- -- 88
2020-10-11 07:00:00 18 14 Nordeste 26 Nordeste 0 -- -- 86
2020-10-11 06:00:00 18 13 Nordeste 29 Nordeste 0 -- -- 84
2020-10-11 05:00:00 17.7 10 Nordeste 23 Norte 0 -- -- 88
2020-10-11 04:00:00 18.3 14 Nordeste 24 Nordeste 0 -- -- 89
2020-10-11 03:00:00 18.1 13 Nordeste 26 Nordeste 0 -- -- 89
2020-10-11 02:00:00 18 14 Nordeste 24 Norte 0 -- -- 85
2020-10-11 01:00:00 18.1 13 Nordeste 23 Nordeste 0 -- -- 85
2020-10-11 00:00:00 18.3 13 Nordeste 26 Nordeste 0 -- -- 86
2020-10-10 23:00:00 18.6 15 Nordeste 27 Nordeste 0 -- -- 86
2020-10-10 22:00:00 19.2 18 Nordeste 33 Nordeste 0 -- -- 89
2020-10-10 21:00:00 19.5 19 Nordeste 35 Nordeste 0 -- -- 88
2020-10-10 20:00:00 19.4 18 Nordeste 32 Nordeste 0 -- -- 86
2020-10-10 19:00:00 20.3 20 Nordeste 34 Nordeste 0 -- -- 81
2020-10-10 18:00:00 21.6 19 Nordeste 37 Nordeste 0 -- -- 78
2020-10-10 17:00:00 22.7 22 Nordeste 39 Nordeste 0 -- -- 73
2020-10-10 16:00:00 23.2 23 Nordeste 36 Nordeste 0 -- -- 71
2020-10-10 15:00:00 23.2 21 Nordeste 36 Nordeste 0 -- -- 74
2020-10-10 14:00:00 23.5 21 Nordeste 36 Este 0 -- -- 72
2020-10-10 13:00:00 22.2 22 Nordeste 38 Nordeste 0 -- -- 77
2020-10-10 12:00:00 21.5 25 Nordeste 43 Nordeste 0 -- -- 79
2020-10-10 11:00:00 21 22 Nordeste 36 Nordeste 0 -- -- 82
2020-10-10 10:00:00 19.8 18 Nordeste 28 Norte 0 -- -- 86
2020-10-10 09:00:00 17.8 12 Norte 23 Nordeste 0 -- -- 85
2020-10-10 08:00:00 17.3 9 Norte 20 Nordeste 0 -- -- 85
2020-10-10 07:00:00 16.9 4 Noroeste 12 Noroeste 0 -- -- 85
2020-10-10 06:00:00 17.2 6 Noroeste 11 Noroeste 0 -- -- 85
2020-10-10 05:00:00 17.4 2 Oeste 10 Noroeste 0 -- -- 85
2020-10-10 04:00:00 17.5 6 Noroeste 13 Norte 0 -- -- 83
2020-10-10 03:00:00 17.5 6 Norte 17 Nordeste 0 -- -- 86
2020-10-10 02:00:00 17.8 5 Noroeste 10 Noroeste 0 -- -- 84
2020-10-10 01:00:00 18.2 5 Noroeste 10 Noroeste 0 -- -- 84
2020-10-10 00:00:00 18.2 5 Noroeste 10 Oeste 0 -- -- 86
2020-10-09 23:00:00 18.6 8 Oeste 13 Sudoeste 0 -- -- 84
2020-10-09 22:00:00 18.9 5 Sudoeste 13 Oeste 0 -- -- 83
2020-10-09 21:00:00 19.2 6 Norte 13 Nordeste 0 -- -- 84
2020-10-09 20:00:00 19.9 0 Calma 14 Este 0 -- -- 83
2020-10-09 19:00:00 20.7 10 Nordeste 27 Nordeste 0 -- -- 81
2020-10-09 18:00:00 22.1 18 Nordeste 30 Nordeste 0 -- -- 73
2020-10-09 17:00:00 22.2 15 Nordeste 27 Nordeste 0 -- -- 77
2020-10-09 16:00:00 22 18 Nordeste 31 Este 0 -- -- 77
2020-10-09 15:00:00 22.1 20 Nordeste 33 Este 0 -- -- 80
2020-10-09 14:00:00 22.4 22 Nordeste 33 Nordeste 0 -- -- 79
2020-10-09 13:00:00 23.2 22 Nordeste 39 Nordeste 0 -- -- 75
2020-10-09 12:00:00 22.4 22 Nordeste 38 Nordeste 0 -- -- 78
2020-10-09 11:00:00 21.9 19 Nordeste 35 Este 0 -- -- 80
2020-10-09 10:00:00 20.8 13 Nordeste 28 Nordeste 0 -- -- 87
2020-10-09 09:00:00 19.2 12 Nordeste 19 Nordeste 0 -- -- 90
2020-10-09 08:00:00 18.8 9 Norte 16 Norte 0 -- -- 91
2020-10-09 07:00:00 18.2 6 Norte 14 Norte 0 -- -- 89
2020-10-09 06:00:00 19 7 Norte 13 Norte 0 -- -- 92
2020-10-09 05:00:00 19 6 Norte 10 Norte 0 -- -- 92
2020-10-09 04:00:00 18.9 6 Norte 9 Nordeste 0 -- -- 90
2020-10-09 03:00:00 18.9 5 Norte 9 Norte 0 -- -- 87
2020-10-09 02:00:00 19.4 4 Norte 6 Norte 0 -- -- 89
2020-10-09 01:00:00 20 2 Norte 9 Nordeste 0 -- -- 75
2020-10-09 00:00:00 20.8 5 Norte 9 Noroeste 0 -- -- 70
2020-10-08 23:00:00 21.3 4 Norte 11 Norte 0 -- -- 69
2020-10-08 22:00:00 21.5 6 Norte 11 Nordeste 0 -- -- 70
2020-10-08 21:00:00 20.2 3 Norte 8 Nordeste 0 -- -- 91
2020-10-08 20:00:00 20.7 8 Nordeste 13 Nordeste 0 -- -- 87
2020-10-08 19:00:00 22.2 9 Nordeste 21 Nordeste 0 -- -- 83
2020-10-08 18:00:00 23.5 12 Nordeste 22 Nordeste 0 -- -- 77
2020-10-08 17:00:00 24.9 14 Este 22 Nordeste 0 -- -- 71
2020-10-08 16:00:00 26.3 13 Nordeste 21 Este 0 -- -- 67
2020-10-08 15:00:00 26.7 13 Este 24 Este 0 -- -- 65
2020-10-08 14:00:00 26.6 17 Este 28 Nordeste 0 -- -- 56
2020-10-08 13:00:00 25.8 15 Este 23 Este 0 -- -- 66
2020-10-08 12:00:00 24.5 16 Nordeste 24 Nordeste 0 -- -- 73
2020-10-08 11:00:00 23 14 Nordeste 24 Este 0 -- -- 78
2020-10-08 10:00:00 21.3 11 Nordeste 17 Nordeste 0 -- -- 84
2020-10-08 09:00:00 18.6 7 Norte 13 Norte 0 -- -- 97
2020-10-08 08:00:00 18.1 8 Noroeste 13 Noroeste 0 -- -- 97
2020-10-08 07:00:00 18.5 3 Noroeste 13 Nordeste 0 -- -- 97
2020-10-08 06:00:00 18.5 9 Norte 15 Norte 0 -- -- 97
2020-10-08 05:00:00 18.5 9 Norte 14 Norte 0 -- -- 97
2020-10-08 04:00:00 18.7 8 Norte 14 Norte 0 -- -- 97
2020-10-08 03:00:00 18.7 8 Nordeste 13 Nordeste 0 -- -- 96
2020-10-08 02:00:00 18.8 5 Nordeste 14 Norte 0 -- -- 96
2020-10-08 01:00:00 18.9 4 Norte 8 Norte 0 -- -- 95
2020-10-08 00:00:00 19.1 4 Norte 7 Norte 0 -- -- 96
2020-10-07 23:00:00 19.4 0 Calma 5 Nordeste 0 -- -- 95
2020-10-07 22:00:00 19.9 3 Nordeste 8 Nordeste 0 -- -- 95
2020-10-07 21:00:00 20.1 4 Nordeste 7 Este 0 -- -- 93
2020-10-07 20:00:00 20.8 4 Nordeste 9 Nordeste 0 -- -- 90
2020-10-07 19:00:00 22.2 8 Este 12 Este 0 -- -- 84
2020-10-07 18:00:00 23.6 9 Nordeste 14 Nordeste 0 -- -- 78
2020-10-07 17:00:00 25.4 8 Este 17 Este 0 -- -- 71
2020-10-07 16:00:00 25.2 10 Este 20 Este 0 -- -- 73
2020-10-07 15:00:00 25.2 14 Este 20 Este 0 -- -- 73
2020-10-07 14:00:00 24.8 13 Nordeste 27 Este 0 -- -- 73
2020-10-07 13:00:00 24.7 14 Este 20 Este 0 -- -- 74
2020-10-07 12:00:00 23.7 12 Nordeste 20 Este 0 -- -- 78
2020-10-07 11:00:00 22.7 10 Este 17 Nordeste 0 -- -- 81
2020-10-07 10:00:00 21.3 10 Nordeste 15 Nordeste 0 -- -- 82
2020-10-07 09:00:00 18.5 0 Calma 9 Nordeste 0 -- -- 80
2020-10-07 08:00:00 17.6 5 Norte 10 Noroeste 0 -- -- 93
2020-10-07 07:00:00 17.7 5 Norte 11 Nordeste 0 -- -- 94
2020-10-07 06:00:00 17.8 5 Norte 13 Nordeste 0 -- -- 94
2020-10-07 05:00:00 17.8 2 Norte 9 Noroeste 0 -- -- 94
2020-10-07 04:00:00 17.9 3 Norte 8 Noroeste 0 -- -- 95
2020-10-07 03:00:00 18.2 4 Norte 9 Nordeste 0 -- -- 95
2020-10-07 02:00:00 18.3 4 Norte 12 Nordeste 0 -- -- 95
2020-10-07 01:00:00 18.4 8 Nordeste 18 Norte 0 -- -- 95
2020-10-07 00:00:00 18.5 12 Nordeste 28 Nordeste 0 -- -- 95
2020-10-06 23:00:00 18.7 13 Nordeste 26 Este 0 -- -- 94
2020-10-06 22:00:00 19.2 8 Noroeste 13 Noroeste 0 -- -- 97
2020-10-06 21:00:00 18.4 6 Norte 14 Nordeste 0.8 -- -- 96
2020-10-06 20:00:00 18.8 10 Nordeste 20 Nordeste 0.2 -- -- 93
2020-10-06 19:00:00 19 10 Nordeste 22 Nordeste 0 -- -- 90
2020-10-06 18:00:00 19.1 13 Nordeste 23 Nordeste 0 -- -- 88
2020-10-06 17:00:00 18.7 15 Nordeste 26 Nordeste 0 -- -- 93
2020-10-06 16:00:00 19 12 Nordeste 21 Nordeste 0 -- -- 97
2020-10-06 15:00:00 18.2 9 Nordeste 21 Nordeste 1.2 -- -- 96
2020-10-06 14:00:00 17.9 15 Nordeste 30 Este 1.6 -- -- 96
2020-10-06 13:00:00 18 17 Nordeste 25 Nordeste 1.2 -- -- 97
2020-10-06 12:00:00 17.9 16 Nordeste 26 Nordeste 2.2 -- -- 96
2020-10-06 11:00:00 17.5 18 Nordeste 35 Nordeste 1.2 -- -- 94
2020-10-06 10:00:00 18 19 Nordeste 37 Nordeste 0 -- -- 92
2020-10-06 09:00:00 17.9 19 Nordeste 33 Nordeste 0 -- -- 94
2020-10-06 08:00:00 17.8 19 Nordeste 34 Nordeste 0.2 -- -- 94
2020-10-06 07:00:00 18 20 Nordeste 33 Nordeste 0 -- -- 94
2020-10-06 06:00:00 18.6 21 Nordeste 35 Nordeste 0 -- -- 90
2020-10-06 05:00:00 18.7 19 Nordeste 30 Nordeste 0 -- -- 91
2020-10-06 04:00:00 18.7 15 Nordeste 32 Norte 0 -- -- 88
2020-10-06 03:00:00 18.7 14 Nordeste 27 Nordeste 0 -- -- 90
2020-10-06 02:00:00 18.2 12 Nordeste 19 Nordeste 0 -- -- 82
2020-10-06 01:00:00 18.1 11 Norte 25 Norte 0 -- -- 77
2020-10-06 00:00:00 18.3 14 Nordeste 28 Nordeste 0 -- -- 80
2020-10-05 23:00:00 18.3 13 Nordeste 29 Nordeste 0 -- -- 81
2020-10-05 22:00:00 18.5 17 Nordeste 30 Nordeste 0 -- -- 85
2020-10-05 21:00:00 18.2 17 Nordeste 31 Norte 0.2 -- -- 89
2020-10-05 20:00:00 18.2 19 Nordeste 32 Nordeste 0.2 -- -- 93
2020-10-05 19:00:00 19.4 14 Nordeste 30 Nordeste 0 -- -- 92
2020-10-05 18:00:00 20.2 18 Nordeste 34 Nordeste 0 -- -- 84
2020-10-05 17:00:00 20.8 21 Nordeste 39 Nordeste 0 -- -- 79
2020-10-05 16:00:00 20.8 24 Nordeste 41 Este 0 -- -- 82
2020-10-05 15:00:00 22.2 24 Nordeste 46 Nordeste 0 -- -- 72
2020-10-05 14:00:00 23.4 26 Nordeste 44 Este 0 -- -- 69
2020-10-05 13:00:00 23.5 23 Nordeste 46 Nordeste 0 -- -- 67
2020-10-05 12:00:00 23.2 30 Nordeste 48 Nordeste 0 -- -- 63
2020-10-05 11:00:00 22.6 26 Nordeste 47 Este 0 -- -- 66
2020-10-05 10:00:00 21.9 25 Nordeste 42 Nordeste 0 -- -- 66
2020-10-05 09:00:00 19.9 23 Nordeste 41 Nordeste 0 -- -- 76
2020-10-05 08:00:00 18.5 22 Nordeste 36 Nordeste 0 -- -- 89
2020-10-05 07:00:00 18.5 18 Nordeste 35 Nordeste 0 -- -- 91
2020-10-05 06:00:00 18.6 21 Nordeste 33 Nordeste 0 -- -- 94
2020-10-05 05:00:00 18 17 Nordeste 35 Nordeste 0 -- -- 93
2020-10-05 04:00:00 18.4 19 Nordeste 36 Este 0 -- -- 89
2020-10-05 03:00:00 18.8 16 Nordeste 33 Nordeste 0 -- -- 82
2020-10-05 02:00:00 18.9 15 Nordeste 40 Nordeste 0 -- -- 77
2020-10-05 01:00:00 19.1 24 Nordeste 36 Nordeste 0 -- -- 77
2020-10-05 00:00:00 18.9 19 Nordeste 37 Nordeste 0 -- -- 82
2020-10-04 23:00:00 19.1 17 Nordeste 33 Nordeste 0 -- -- 87
2020-10-04 22:00:00 19.4 22 Nordeste 37 Nordeste 0 -- -- 80
2020-10-04 21:00:00 19.8 22 Nordeste 35 Nordeste 0 -- -- 76
2020-10-04 20:00:00 19.9 18 Nordeste 41 Nordeste 0 -- -- 76
2020-10-04 19:00:00 20.9 27 Nordeste 50 Nordeste 0 -- -- 69
2020-10-04 18:00:00 22.6 23 Nordeste 39 Nordeste 0 -- -- 66
2020-10-04 17:00:00 22.9 19 Nordeste 32 Este 0 -- -- 67
2020-10-04 16:00:00 22.2 21 Este 36 Nordeste 0 -- -- 75
2020-10-04 15:00:00 22.7 19 Nordeste 35 Nordeste 0 -- -- 72
2020-10-04 14:00:00 21.6 21 Nordeste 32 Nordeste 0 -- -- 78
2020-10-04 13:00:00 21.3 22 Este 35 Nordeste 0 -- -- 81
2020-10-04 12:00:00 22.7 17 Este 31 Este 0 -- -- 77
2020-10-04 11:00:00 22.9 13 Este 28 Este 0 -- -- 74
2020-10-04 10:00:00 20.9 0 Calma 13 Este 0 -- -- 82
2020-10-04 09:00:00 19.7 5 Norte 21 Oeste 0 -- -- 82
2020-10-04 08:00:00 18.6 10 Sudoeste 13 Sudoeste 0 -- -- 83
2020-10-04 07:00:00 18.3 6 Oeste 13 Sudoeste 0 -- -- 82
2020-10-04 06:00:00 18.8 3 Sur 22 Oeste 0 -- -- 79
2020-10-04 05:00:00 18.8 10 Oeste 17 Sudoeste 0 -- -- 83
2020-10-04 04:00:00 19.3 10 Oeste 14 Nordeste 0 -- -- 89
2020-10-04 03:00:00 19.1 5 Noroeste 10 Oeste 0 -- -- 82
2020-10-04 02:00:00 18.9 6 Oeste 13 Noroeste 0 -- -- 87
2020-10-04 01:00:00 19.7 6 Sudoeste 14 Este 0 -- -- 90
2020-10-04 00:00:00 19.8 6 Nordeste 10 Nordeste 0 -- -- 85
2020-10-03 23:00:00 20.2 5 Sur 13 Nordeste 0 -- -- 84
2020-10-03 22:00:00 20.3 9 Nordeste 20 Nordeste 0 -- -- 83
2020-10-03 21:00:00 20.4 11 Nordeste 23 Nordeste 0 -- -- 83
2020-10-03 20:00:00 20.5 14 Nordeste 31 Nordeste 0 -- -- 84
2020-10-03 19:00:00 21.1 15 Nordeste 25 Este 0 -- -- 81
2020-10-03 18:00:00 21.7 14 Este 31 Este 0 -- -- 82
2020-10-03 17:00:00 22.8 15 Nordeste 35 Nordeste 0 -- -- 76
2020-10-03 16:00:00 23.9 19 Este 38 Este 0 -- -- 72
2020-10-03 15:00:00 24.4 21 Este 40 Nordeste 0 -- -- 68
2020-10-03 14:00:00 26.5 19 Este 32 Este 0 -- -- 56
2020-10-03 13:00:00 27.3 12 Este 27 Este 0 -- -- 51
2020-10-03 12:00:00 24.6 9 Sur 23 Sur 0 -- -- 59
2020-10-03 11:00:00 23.1 9 Sur 17 Sur 0 -- -- 61
2020-10-03 10:00:00 22.7 6 Este 13 Este 0 -- -- 65
2020-10-03 09:00:00 19.2 7 Oeste 12 Noroeste 0 -- -- 78
2020-10-03 08:00:00 17.6 6 Oeste 19 Oeste 0 -- -- 83
2020-10-03 07:00:00 17.7 11 Sudoeste 15 Sudoeste 0 -- -- 81
2020-10-03 06:00:00 17.8 6 Norte 24 Sudoeste 0 -- -- 78
2020-10-03 05:00:00 18.4 14 Oeste 21 Sudoeste 0 -- -- 79
2020-10-03 04:00:00 18.2 7 Sudoeste 12 Noroeste 0 -- -- 82
2020-10-03 03:00:00 18.3 6 Oeste 21 Oeste 0 -- -- 79
2020-10-03 02:00:00 18.1 11 Oeste 17 Oeste 0 -- -- 80
2020-10-03 01:00:00 18.9 13 Oeste 17 Oeste 0 -- -- 79
2020-10-03 00:00:00 18.9 4 Sudoeste 12 Oeste 0 -- -- 77
2020-10-02 23:00:00 19.1 7 Oeste 14 Sudoeste 0 -- -- 78
2020-10-02 22:00:00 20.1 11 Sudoeste 17 Sudoeste 0 -- -- 77
2020-10-02 21:00:00 20.6 7 Sudoeste 12 Sudoeste 0 -- -- 76
2020-10-02 20:00:00 20.6 6 Sudoeste 14 Este 0 -- -- 77
2020-10-02 19:00:00 21.3 5 Sudeste 34 Nordeste 0 -- -- 74
2020-10-02 18:00:00 22.5 15 Este 37 Nordeste 0 -- -- 68
2020-10-02 17:00:00 23.1 15 Este 42 Este 0 -- -- 71
2020-10-02 16:00:00 25.2 23 Este 48 Este 0 -- -- 57
2020-10-02 15:00:00 25.2 25 Este 48 Este 0 -- -- 55
2020-10-02 14:00:00 24.4 25 Este 48 Este 0 -- -- 61
2020-10-02 13:00:00 24.3 24 Nordeste 51 Nordeste 0 -- -- 58
2020-10-02 12:00:00 23.6 28 Nordeste 46 Nordeste 0 -- -- 57
2020-10-02 11:00:00 22.9 22 Nordeste 39 Nordeste 0 -- -- 58
2020-10-02 10:00:00 20.2 19 Nordeste 31 Nordeste 0 -- -- 69
2020-10-02 09:00:00 18.2 8 Norte 19 Norte 0 -- -- 71
2020-10-02 08:00:00 16.9 12 Norte 26 Norte 0 -- -- 77
2020-10-02 07:00:00 17.1 5 Noroeste 14 Noroeste 0 -- -- 76
2020-10-02 06:00:00 17 5 Noroeste 9 Oeste 0 -- -- 78
2020-10-02 05:00:00 17.2 5 Noroeste 10 Noroeste 0 -- -- 79
2020-10-02 04:00:00 18 10 Noroeste 18 Noroeste 0 -- -- 73
2020-10-02 03:00:00 17.5 9 Noroeste 21 Este 0 -- -- 75
2020-10-02 02:00:00 18.4 13 Nordeste 30 Norte 0 -- -- 76
2020-10-02 01:00:00 18.1 10 Noroeste 18 Este 0 -- -- 75
2020-10-02 00:00:00 18.9 8 Nordeste 21 Nordeste 0 -- -- 77
2020-10-01 23:00:00 18.5 5 Noroeste 26 Nordeste 0 -- -- 75
2020-10-01 22:00:00 19.3 16 Nordeste 27 Nordeste 0 -- -- 77
2020-10-01 21:00:00 19.5 6 Norte 29 Nordeste 0 -- -- 75
2020-10-01 20:00:00 20.2 23 Nordeste 44 Nordeste 0 -- -- 70
2020-10-01 19:00:00 21.3 29 Nordeste 47 Nordeste 0 -- -- 64
2020-10-01 18:00:00 22.3 24 Nordeste 46 Nordeste 0 -- -- 68
2020-10-01 17:00:00 23 29 Nordeste 46 Este 0 -- -- 62
2020-10-01 16:00:00 22.9 25 Nordeste 42 Este 0 -- -- 67
2020-10-01 15:00:00 22.7 27 Nordeste 50 Nordeste 0 -- -- 69
2020-10-01 14:00:00 24.2 26 Nordeste 45 Nordeste 0 -- -- 62
2020-10-01 13:00:00 23.9 29 Nordeste 42 Nordeste 0 -- -- 60
2020-10-01 12:00:00 23.3 27 Nordeste 46 Este 0 -- -- 64
2020-10-01 11:00:00 22.5 22 Este 35 Este 0 -- -- 68
2020-10-01 10:00:00 21.5 18 Nordeste 35 Nordeste 0 -- -- 68
2020-10-01 09:00:00 19.5 16 Nordeste 27 Nordeste 0 -- -- 77
2020-10-01 08:00:00 17.7 6 Noroeste 13 Oeste 0 -- -- 78
2020-10-01 07:00:00 18.8 4 Norte 19 Nordeste 0 -- -- 79
2020-10-01 06:00:00 19 14 Nordeste 27 Nordeste 0 -- -- 78
2020-10-01 05:00:00 18.6 7 Norte 22 Norte 0 -- -- 80
2020-10-01 04:00:00 18.5 14 Nordeste 22 Norte 0 -- -- 83
2020-10-01 03:00:00 18.7 14 Nordeste 26 Nordeste 0 -- -- 85
2020-10-01 02:00:00 18.5 18 Nordeste 30 Nordeste 0 -- -- 88
2020-10-01 01:00:00 18.7 3 Norte 23 Nordeste 0 -- -- 75
2020-10-01 00:00:00 19.4 10 Nordeste 23 Nordeste 0 -- -- 75